Sy Seewind — DCIB — position and weather

sailwx.info

Track history (hours):
 
Tides and Currents Weather Stations Pressure Air Temp Water Temp Dewpoint Dewpoint Depression Visibility Wind Speed Wind Dir Waves Ship Positions

Sy Seewind

Last reported at 2014-Aug-29 17:33 UTC. Time now 2014-Sep-02 19:09 UTC.
Position N 39°34' E 002°38'.

Length 11 m.

Type: Sailing vessel. MMSI: 211531730.

Date/timePositionNaut miles runAvg speedWind from/ knotsBaromVisibWave heightAir tempDewpointWater temp
2014-Aug-29 17:33N 39°34' E 002°38'3 2.8
2014-Aug-29 16:33N 39°31' E 002°37'8 3.6
2014-Aug-29 14:26N 39°28' E 002°28'2 0.0
2014-Aug-27 15:32N 39°29' E 002°26'5 3.9
2014-Aug-27 14:23N 39°27' E 002°31'3 3.5
2014-Aug-27 13:33N 39°29' E 002°34'2 2.1
2014-Aug-27 12:32N 39°31' E 002°36'3 3.2
2014-Aug-27 11:33N 39°34' E 002°38'  
2014-Aug-22 13:32N 39°32' E 002°35'3 1.4
2014-Aug-22 11:33N 39°29' E 002°34'4 3.8
2014-Aug-22 10:33N 39°32' E 002°37'2 2.1
2014-Aug-22 09:32N 39°34' E 002°38'  
Track history (hours):
 
Tides and Currents Weather Stations Pressure Air Temp Water Temp Dewpoint Dewpoint Depression Visibility Wind Speed Wind Dir Waves Ship Positions

Sy Seewind

Last reported at 2014-Aug-29 17:33 UTC. Time now 2014-Sep-02 19:09 UTC.
Position N 39°34' E 002°38'.

Length 11 m.

Type: Sailing vessel. MMSI: 211531730.

Date/timePositionNaut miles runAvg speedWind from/ knotsBaromVisibWave heightAir tempDewpointWater temp
2014-Aug-29 17:33N 39°34' E 002°38'3 2.8
2014-Aug-29 16:33N 39°31' E 002°37'8 3.6
2014-Aug-29 14:26N 39°28' E 002°28'2 0.0
2014-Aug-27 15:32N 39°29' E 002°26'5 3.9
2014-Aug-27 14:23N 39°27' E 002°31'3 3.5
2014-Aug-27 13:33N 39°29' E 002°34'2 2.1
2014-Aug-27 12:32N 39°31' E 002°36'3 3.2
2014-Aug-27 11:33N 39°34' E 002°38'  
2014-Aug-22 13:32N 39°32' E 002°35'3 1.4
2014-Aug-22 11:33N 39°29' E 002°34'4 3.8
2014-Aug-22 10:33N 39°32' E 002°37'2 2.1
2014-Aug-22 09:32N 39°34' E 002°38'  

Dump ship's entire track history